createdAt,value
2022-09-26T00:01:38.697Z,7.00
2022-09-26T00:06:38.103Z,8.20
2022-09-26T00:09:05.803Z,5.80
2022-09-26T00:11:34.741Z,6.90
2022-09-26T00:14:08.194Z,7.00
2022-09-26T00:16:36.197Z,5.80
2022-09-26T00:19:04.986Z,4.60
2022-09-26T00:21:34.360Z,7.80
2022-09-26T00:24:03.140Z,7.50
2022-09-26T00:26:33.760Z,7.70
2022-09-26T00:29:07.140Z,6.50
2022-09-26T00:31:40.851Z,5.60
2022-09-26T00:34:15.316Z,8.20
2022-09-26T00:36:43.556Z,7.30
2022-09-26T00:39:15.461Z,8.40
2022-09-26T00:41:44.872Z,7.00
2022-09-26T00:44:41.815Z,7.40
2022-09-26T00:47:28.069Z,7.40
2022-09-26T00:50:07.894Z,6.20
2022-09-26T00:52:43.904Z,5.80
2022-09-26T00:55:15.906Z,7.90
2022-09-26T00:58:06.745Z,5.90
2022-09-26T01:00:34.469Z,6.50
2022-09-26T01:03:03.791Z,5.70
2022-09-26T01:05:32.767Z,7.40
2022-09-26T01:08:02.675Z,4.30
2022-09-26T01:10:30.470Z,8.70
2022-09-26T01:13:00.241Z,8.90
2022-09-26T01:15:29.087Z,8.30
2022-09-26T01:17:57.351Z,7.10
2022-09-26T01:20:56.006Z,8.90
2022-09-26T01:23:45.383Z,8.30
2022-09-26T01:26:34.702Z,6.10
2022-09-26T01:29:31.435Z,8.20
2022-09-26T01:32:48.468Z,8.70
2022-09-26T01:35:28.344Z,5.70
2022-09-26T01:38:35.185Z,8.90
2022-09-26T01:41:24.713Z,5.50
2022-09-26T01:44:20.729Z,7.40
2022-09-26T01:47:39.510Z,4.30
2022-09-26T01:50:45.487Z,7.30
2022-09-26T01:53:25.944Z,7.30
2022-09-26T01:56:09.888Z,3.90
2022-09-26T01:58:53.455Z,6.60
2022-09-26T02:01:25.474Z,8.10
2022-09-26T02:04:01.792Z,7.20
2022-09-26T02:06:44.398Z,5.70
2022-09-26T02:09:33.847Z,9.40
2022-09-26T02:12:09.878Z,5.30
2022-09-26T02:14:41.918Z,7.20
2022-09-26T02:17:16.529Z,9.10
2022-09-26T02:19:59.345Z,5.20
2022-09-26T02:22:33.785Z,8.60
2022-09-26T02:25:03.483Z,7.50
2022-09-26T02:27:31.519Z,6.90
2022-09-26T02:29:59.655Z,4.10
2022-09-26T02:32:31.897Z,5.30
2022-09-26T02:35:22.222Z,4.60
2022-09-26T02:37:50.320Z,5.90
2022-09-26T02:40:20.381Z,10.80
2022-09-26T02:43:01.886Z,5.30
2022-09-26T02:46:00.203Z,7.40
2022-09-26T02:48:48.155Z,5.70
2022-09-26T02:51:42.170Z,6.10
2022-09-26T02:54:25.602Z,6.80
2022-09-26T02:57:40.029Z,5.70
2022-09-26T03:00:16.206Z,6.10
2022-09-26T03:03:01.233Z,8.70
2022-09-26T03:05:34.998Z,6.10
2022-09-26T03:08:25.150Z,5.40
2022-09-26T03:10:59.732Z,8.90
2022-09-26T03:13:29.800Z,5.00
2022-09-26T03:15:59.573Z,9.60
2022-09-26T03:18:38.495Z,6.10
2022-09-26T03:21:07.541Z,8.10
2022-09-26T03:23:35.425Z,5.20
2022-09-26T03:26:13.951Z,7.80
2022-09-26T03:28:52.678Z,5.90
2022-09-26T03:31:25.185Z,7.00
2022-09-26T03:34:00.030Z,7.90
2022-09-26T03:36:28.629Z,7.40
2022-09-26T03:38:56.618Z,8.60
2022-09-26T03:41:44.943Z,8.30
2022-09-26T03:44:25.411Z,7.10
2022-09-26T03:47:05.623Z,5.50
2022-09-26T03:49:38.843Z,10.00
2022-09-26T03:52:10.634Z,6.40
2022-09-26T03:54:38.510Z,6.50
2022-09-26T03:57:06.429Z,6.30
2022-09-26T03:59:36.473Z,4.90
2022-09-26T04:02:05.244Z,5.30
2022-09-26T04:04:36.753Z,7.10
2022-09-26T04:07:04.523Z,7.80
2022-09-26T04:09:32.480Z,7.40
2022-09-26T04:12:01.257Z,9.60
2022-09-26T04:14:29.031Z,6.40
2022-09-26T04:16:59.204Z,6.20
2022-09-26T04:19:34.065Z,7.40
2022-09-26T04:22:02.005Z,8.00
2022-09-26T04:24:33.989Z,7.40
2022-09-26T04:27:01.896Z,7.90
2022-09-26T04:29:30.223Z,4.80
2022-09-26T04:32:13.016Z,6.50
2022-09-26T04:35:01.009Z,7.10
2022-09-26T04:37:37.004Z,8.20
2022-09-26T04:40:05.201Z,7.20
2022-09-26T04:42:36.880Z,6.10
2022-09-26T04:47:33.478Z,6.60
2022-09-26T04:50:30.236Z,6.80
2022-09-26T04:53:09.007Z,5.10
2022-09-26T04:55:56.942Z,6.10
2022-09-26T04:58:24.919Z,8.90
2022-09-26T05:00:53.093Z,6.30
2022-09-26T05:03:29.565Z,5.60
2022-09-26T05:05:58.051Z,6.90
2022-09-26T05:08:26.935Z,8.00
2022-09-26T05:10:57.387Z,5.80
2022-09-26T05:13:26.755Z,6.80
2022-09-26T05:15:55.810Z,5.60
2022-09-26T05:18:24.792Z,6.40
2022-09-26T05:20:53.963Z,4.20
2022-09-26T05:23:45.021Z,4.70
2022-09-26T05:29:08.333Z,5.60
2022-09-26T05:31:57.219Z,4.30
2022-09-26T05:34:26.164Z,3.10
2022-09-26T05:36:54.131Z,5.50
2022-09-26T05:39:42.666Z,7.30
2022-09-26T05:42:11.180Z,3.60
2022-09-26T05:44:39.743Z,4.60
2022-09-26T05:47:08.875Z,3.50
2022-09-26T05:49:37.107Z,3.30
2022-09-26T05:52:05.172Z,5.10
2022-09-26T05:54:33.063Z,3.80
2022-09-26T05:57:01.631Z,2.90
2022-09-26T05:59:46.878Z,2.90
2022-09-26T06:02:26.827Z,2.40
2022-09-26T06:05:15.122Z,3.00
2022-09-26T06:08:01.778Z,1.90
2022-09-26T06:10:39.642Z,2.10
2022-09-26T06:13:07.869Z,3.10
2022-09-26T06:15:54.521Z,3.20
2022-09-26T06:18:22.263Z,2.90
2022-09-26T06:20:50.762Z,3.80
2022-09-26T06:23:18.502Z,2.90
2022-09-26T06:25:47.222Z,1.80
2022-09-26T06:28:14.975Z,3.10
2022-09-26T06:30:42.616Z,3.30
2022-09-26T06:33:13.322Z,3.40
2022-09-26T06:36:04.177Z,6.40
2022-09-26T06:38:36.558Z,4.40
2022-09-26T06:41:07.471Z,3.20
2022-09-26T06:43:35.639Z,6.10
2022-09-26T06:46:32.688Z,3.00
2022-09-26T06:49:13.240Z,2.60
2022-09-26T06:51:43.754Z,4.70
2022-09-26T06:54:11.854Z,6.00
2022-09-26T06:56:39.735Z,4.80
2022-09-26T06:59:08.488Z,4.30
2022-09-26T07:01:41.437Z,7.90
2022-09-26T07:04:35.877Z,6.20
2022-09-26T07:07:30.270Z,5.20
2022-09-26T07:09:58.338Z,7.30
2022-09-26T07:12:40.811Z,5.30
2022-09-26T07:15:09.622Z,6.90
2022-09-26T07:17:37.329Z,8.70
2022-09-26T07:20:36.879Z,8.60
2022-09-26T07:23:10.796Z,6.90
2022-09-26T07:25:39.717Z,8.70
2022-09-26T07:28:11.162Z,10.30
2022-09-26T07:30:47.788Z,7.00
2022-09-26T07:33:47.825Z,7.10
2022-09-26T07:36:16.160Z,8.50
2022-09-26T07:38:48.556Z,9.60
2022-09-26T07:41:17.995Z,9.80
2022-09-26T07:44:53.023Z,8.80
2022-09-26T07:46:53.192Z,8.70
2022-09-26T07:49:39.566Z,12.00
2022-09-26T07:52:15.223Z,8.50
2022-09-26T07:54:51.320Z,6.30
2022-09-26T07:57:33.009Z,7.40
2022-09-26T08:00:14.575Z,7.40
2022-09-26T08:02:46.980Z,11.30
2022-09-26T08:05:20.113Z,9.90
2022-09-26T08:07:49.350Z,13.90
2022-09-26T08:10:37.337Z,7.00
2022-09-26T08:13:42.195Z,11.40
2022-09-26T08:16:23.435Z,10.60
2022-09-26T08:18:55.008Z,11.80
2022-09-26T08:21:25.188Z,16.30
2022-09-26T08:23:56.521Z,12.20
2022-09-26T08:26:44.557Z,14.90
2022-09-26T08:29:23.522Z,15.40
2022-09-26T08:31:54.723Z,11.60
2022-09-26T08:34:25.409Z,15.30
2022-09-26T08:37:14.287Z,14.20
2022-09-26T08:40:02.371Z,14.60
2022-09-26T08:43:15.172Z,19.20
2022-09-26T08:46:38.045Z,21.50
2022-09-26T08:50:11.711Z,17.60
2022-09-26T08:52:56.905Z,19.00
2022-09-26T08:55:32.810Z,20.70
2022-09-26T08:58:16.026Z,16.50
2022-09-26T09:00:47.515Z,19.20
2022-09-26T09:06:12.981Z,21.60
2022-09-26T09:08:48.938Z,23.60
2022-09-26T09:12:10.378Z,27.20
2022-09-26T09:15:34.088Z,25.00
2022-09-26T09:18:36.563Z,21.10
2022-09-26T09:22:03.401Z,20.90
2022-09-26T09:25:01.268Z,25.10
2022-09-26T09:28:01.286Z,27.00
2022-09-26T09:30:47.560Z,20.30
2022-09-26T09:33:49.326Z,23.80
2022-09-26T09:36:59.485Z,19.10
2022-09-26T09:39:39.943Z,24.50
2022-09-26T09:42:55.186Z,20.40
2022-09-26T09:45:48.138Z,24.90
2022-09-26T09:48:16.255Z,23.70
2022-09-26T09:51:10.494Z,22.60
2022-09-26T09:54:14.544Z,21.80
2022-09-26T09:57:15.268Z,18.50
2022-09-26T10:00:25.194Z,25.50
2022-09-26T10:03:11.394Z,18.20
2022-09-26T10:05:45.189Z,15.50
2022-09-26T10:08:24.891Z,16.80
2022-09-26T10:11:19.389Z,22.60
2022-09-26T10:14:12.328Z,24.00
2022-09-26T10:17:20.675Z,18.70
2022-09-26T10:20:59.703Z,21.50
2022-09-26T10:23:44.112Z,23.40
2022-09-26T10:26:29.031Z,17.90
2022-09-26T10:29:02.581Z,21.70
2022-09-26T10:34:31.069Z,15.10
2022-09-26T10:37:22.898Z,11.70
2022-09-26T10:40:14.283Z,16.70
2022-09-26T10:42:47.202Z,13.00
2022-09-26T10:45:20.407Z,14.40
2022-09-26T10:48:55.327Z,12.60
2022-09-26T10:52:01.362Z,13.50
2022-09-26T10:55:05.061Z,14.00
2022-09-26T10:57:57.476Z,11.90
2022-09-26T11:00:43.847Z,15.40
2022-09-26T11:03:21.824Z,13.40
2022-09-26T11:06:35.791Z,10.80
2022-09-26T11:09:20.692Z,12.80
2022-09-26T11:12:39.908Z,11.40
2022-09-26T11:15:13.885Z,18.00
2022-09-26T11:17:51.741Z,11.50
2022-09-26T11:20:50.613Z,12.60
2022-09-26T11:23:27.759Z,14.10
2022-09-26T11:26:17.033Z,12.10
2022-09-26T11:29:05.040Z,8.40
2022-09-26T11:31:44.078Z,6.00
2022-09-26T11:34:31.443Z,2.70
2022-09-26T11:37:43.242Z,4.40
2022-09-26T11:40:46.053Z,4.90
2022-09-26T11:43:28.994Z,4.90
2022-09-26T11:46:21.369Z,5.90
2022-09-26T11:50:02.931Z,5.40
2022-09-26T11:52:57.947Z,8.80
2022-09-26T11:55:37.217Z,9.40
2022-09-26T11:58:26.678Z,7.90
2022-09-26T12:01:07.537Z,8.90
2022-09-26T12:04:01.503Z,11.10
2022-09-26T12:06:41.538Z,6.90
2022-09-26T12:09:20.899Z,7.30
2022-09-26T12:12:29.539Z,12.60
2022-09-26T12:15:45.077Z,4.90
2022-09-26T12:18:39.402Z,6.50
2022-09-26T12:22:09.168Z,9.60
2022-09-26T12:24:58.558Z,6.30
2022-09-26T12:28:05.727Z,6.10
2022-09-26T12:30:49.888Z,8.60
2022-09-26T12:33:39.681Z,10.20
2022-09-26T12:36:28.681Z,5.80
2022-09-26T12:39:51.742Z,8.60
2022-09-26T12:42:35.839Z,5.60
2022-09-26T12:45:24.350Z,10.90
2022-09-26T12:48:20.271Z,6.50
2022-09-26T12:51:42.640Z,7.30
2022-09-26T12:54:33.036Z,7.00
2022-09-26T12:57:39.187Z,8.50
2022-09-26T13:00:23.165Z,6.10
2022-09-26T13:03:07.973Z,5.90
2022-09-26T13:05:58.025Z,8.00
2022-09-26T13:08:47.338Z,5.80
2022-09-26T13:11:44.301Z,10.30
2022-09-26T13:14:49.148Z,10.70
2022-09-26T13:17:24.553Z,10.50
2022-09-26T13:20:03.994Z,7.40
2022-09-26T13:22:47.940Z,8.30
2022-09-26T13:25:20.381Z,5.40
2022-09-26T13:28:06.332Z,9.10
2022-09-26T13:30:46.728Z,4.20
2022-09-26T13:33:27.558Z,4.20
2022-09-26T13:36:01.357Z,9.60
2022-09-26T13:39:09.126Z,8.00
2022-09-26T13:41:46.674Z,5.80
2022-09-26T13:44:43.742Z,5.50
2022-09-26T13:47:50.640Z,4.90
2022-09-26T13:50:32.573Z,6.70
2022-09-26T13:53:13.033Z,10.30
2022-09-26T13:55:43.250Z,9.50
2022-09-26T13:58:26.299Z,6.20
2022-09-26T14:00:54.523Z,6.50
2022-09-26T14:03:23.020Z,8.40
2022-09-26T14:06:01.858Z,7.50
2022-09-26T14:08:54.114Z,5.10
2022-09-26T14:11:27.689Z,6.80
2022-09-26T14:14:21.414Z,8.00
2022-09-26T14:17:01.559Z,8.50
2022-09-26T14:19:49.655Z,8.30
2022-09-26T14:22:23.058Z,9.10
2022-09-26T14:24:57.059Z,9.10
2022-09-26T14:27:39.370Z,5.70
2022-09-26T14:30:27.887Z,7.80
2022-09-26T14:33:04.596Z,6.00
2022-09-26T14:35:36.056Z,10.00
2022-09-26T14:40:37.986Z,8.90
2022-09-26T14:43:17.257Z,8.30
2022-09-26T14:46:05.721Z,7.40
2022-09-26T14:48:39.999Z,7.10
2022-09-26T14:51:18.514Z,6.10
2022-09-26T14:53:48.801Z,6.50
2022-09-26T14:56:44.726Z,6.90
2022-09-26T14:59:24.856Z,9.00
2022-09-26T15:02:10.410Z,6.10
2022-09-26T15:04:39.253Z,8.70
2022-09-26T15:07:19.914Z,8.70
2022-09-26T15:10:05.032Z,11.90
2022-09-26T15:12:49.995Z,8.00
2022-09-26T15:16:00.454Z,7.00
2022-09-26T15:18:28.048Z,7.30
2022-09-26T15:21:10.204Z,5.40
2022-09-26T15:23:52.636Z,6.80
2022-09-26T15:26:26.329Z,5.20
2022-09-26T15:28:57.109Z,4.90
2022-09-26T15:31:38.519Z,6.30
2022-09-26T15:34:17.672Z,3.70
2022-09-26T15:36:57.714Z,5.40
2022-09-26T15:39:31.457Z,5.00
2022-09-26T15:42:39.728Z,4.60
2022-09-26T15:45:40.409Z,4.20
2022-09-26T15:48:20.281Z,5.30
2022-09-26T15:50:56.039Z,4.60
2022-09-26T15:53:36.246Z,2.90
2022-09-26T15:56:25.125Z,3.90
2022-09-26T15:59:13.049Z,3.70
2022-09-26T16:01:48.000Z,3.90
2022-09-26T16:04:49.409Z,4.20
2022-09-26T16:07:23.711Z,3.10
2022-09-26T16:09:52.418Z,5.90
2022-09-26T16:12:24.417Z,5.30
2022-09-26T16:15:05.750Z,2.50
2022-09-26T16:17:49.215Z,6.40
2022-09-26T16:20:16.981Z,4.40
2022-09-26T16:22:49.352Z,9.40
2022-09-26T16:25:32.311Z,5.00
2022-09-26T16:28:08.759Z,6.80
2022-09-26T16:30:41.689Z,6.10
2022-09-26T16:33:09.357Z,7.70
2022-09-26T16:35:45.004Z,7.00
2022-09-26T16:38:32.875Z,6.20
2022-09-26T16:41:48.904Z,7.50
2022-09-26T16:44:30.303Z,10.20
2022-09-26T16:47:04.657Z,5.90
2022-09-26T16:49:48.571Z,6.90
2022-09-26T16:52:28.428Z,6.20
2022-09-26T16:54:59.860Z,4.80
2022-09-26T17:00:39.402Z,8.60
2022-09-26T17:03:31.095Z,6.90
2022-09-26T17:06:00.481Z,6.00
2022-09-26T17:08:28.720Z,5.80
2022-09-26T17:11:02.365Z,6.80
2022-09-26T17:13:35.200Z,9.80
2022-09-26T17:16:03.527Z,10.30
2022-09-26T17:18:33.363Z,6.90
2022-09-26T17:21:01.942Z,9.70
2022-09-26T17:23:41.055Z,7.60
2022-09-26T17:26:21.751Z,6.80
2022-09-26T17:28:53.309Z,6.10
2022-09-26T17:31:21.562Z,9.10
2022-09-26T17:33:53.046Z,9.90
2022-09-26T17:36:31.755Z,6.90
2022-09-26T17:39:00.947Z,8.90
2022-09-26T17:41:31.284Z,11.60
2022-09-26T17:44:01.120Z,8.40
2022-09-26T17:46:29.570Z,10.10
2022-09-26T17:48:59.255Z,12.00
2022-09-26T17:51:26.974Z,8.40
2022-09-26T17:53:57.368Z,9.60
2022-09-26T17:56:26.331Z,6.50
2022-09-26T17:58:54.315Z,6.60
2022-09-26T18:01:34.454Z,8.50
2022-09-26T18:04:09.236Z,7.70
2022-09-26T18:06:37.202Z,12.50
2022-09-26T18:09:09.826Z,10.90
2022-09-26T18:11:38.712Z,7.50
2022-09-26T18:14:07.976Z,7.80
2022-09-26T18:16:35.788Z,6.90
2022-09-26T18:19:07.529Z,11.30
2022-09-26T18:21:36.589Z,9.30
2022-09-26T18:24:06.829Z,7.70
2022-09-26T18:26:47.295Z,8.90
2022-09-26T18:29:26.306Z,5.60
2022-09-26T18:31:54.536Z,9.30
2022-09-26T18:34:22.333Z,7.10
2022-09-26T18:36:51.871Z,11.40
2022-09-26T18:39:19.671Z,6.50
2022-09-26T18:41:54.653Z,6.10
2022-09-26T18:44:23.891Z,9.50
2022-09-26T18:46:52.984Z,5.10
2022-09-26T18:49:21.113Z,7.30
2022-09-26T18:51:49.167Z,7.50
2022-09-26T18:54:17.799Z,5.40
2022-09-26T18:57:04.313Z,3.80
2022-09-26T18:59:32.208Z,6.20
2022-09-26T19:02:02.585Z,7.10
2022-09-26T19:04:31.583Z,4.20
2022-09-26T19:07:06.711Z,7.70
2022-09-26T19:09:36.221Z,5.10
2022-09-26T19:12:04.616Z,5.40
2022-09-26T19:14:32.594Z,5.30
2022-09-26T19:17:00.423Z,2.70
2022-09-26T19:19:30.171Z,5.60
2022-09-26T19:22:10.354Z,8.10
2022-09-26T19:24:51.609Z,4.90
2022-09-26T19:27:24.835Z,9.40
2022-09-26T19:30:21.274Z,6.80
2022-09-26T19:32:52.936Z,4.70
2022-09-26T19:35:27.050Z,6.00
2022-09-26T19:37:55.084Z,7.40
2022-09-26T19:40:25.109Z,6.10
2022-09-26T19:42:54.912Z,4.90
2022-09-26T19:45:24.178Z,3.20
2022-09-26T19:47:55.762Z,4.60
2022-09-26T19:50:26.267Z,5.20
2022-09-26T19:52:58.516Z,5.00
2022-09-26T19:55:30.565Z,5.10
2022-09-26T19:58:11.697Z,3.30
2022-09-26T20:00:43.488Z,7.60
2022-09-26T20:03:22.899Z,6.30
2022-09-26T20:05:51.199Z,7.40
2022-09-26T20:08:23.137Z,3.30
2022-09-26T20:11:01.240Z,5.30
2022-09-26T20:13:49.041Z,5.10
2022-09-26T20:16:16.975Z,4.80
2022-09-26T20:18:48.766Z,3.60
2022-09-26T20:21:21.645Z,4.00
2022-09-26T20:23:49.423Z,3.90
2022-09-26T20:26:18.817Z,3.20
2022-09-26T20:28:46.532Z,5.10
2022-09-26T20:31:29.075Z,5.00
2022-09-26T20:34:00.101Z,3.50
2022-09-26T20:36:32.754Z,2.70
2022-09-26T20:39:06.261Z,3.90
2022-09-26T20:41:40.692Z,3.60
2022-09-26T20:44:17.877Z,4.20
2022-09-26T20:46:52.378Z,2.40
2022-09-26T20:49:27.012Z,3.40
2022-09-26T20:51:57.322Z,3.50
2022-09-26T20:54:29.311Z,5.80
2022-09-26T20:56:58.769Z,6.80
2022-09-26T20:59:26.906Z,5.20
2022-09-26T21:01:56.979Z,4.70
2022-09-26T21:04:32.393Z,3.60
2022-09-26T21:07:00.054Z,4.60
2022-09-26T21:09:27.741Z,4.50
2022-09-26T21:11:55.508Z,4.80
2022-09-26T21:14:23.182Z,4.10
2022-09-26T21:16:52.408Z,7.00
2022-09-26T21:19:24.043Z,2.80
2022-09-26T21:21:58.659Z,3.30
2022-09-26T21:24:42.091Z,5.30
2022-09-26T21:27:11.530Z,9.40
2022-09-26T21:29:41.292Z,6.70
2022-09-26T21:32:16.965Z,5.30
2022-09-26T21:34:57.497Z,4.80
2022-09-26T21:37:25.434Z,5.10
2022-09-26T21:39:53.297Z,4.50
2022-09-26T21:42:21.688Z,5.40
2022-09-26T21:45:01.105Z,5.00
2022-09-26T21:47:29.292Z,4.40
2022-09-26T21:49:57.923Z,6.50
2022-09-26T21:52:44.650Z,4.60
2022-09-26T21:55:19.392Z,6.70
2022-09-26T21:57:50.294Z,4.70
2022-09-26T22:00:18.374Z,5.50
2022-09-26T22:02:46.231Z,2.60
2022-09-26T22:05:16.592Z,2.80
2022-09-26T22:07:44.248Z,5.50
2022-09-26T22:10:12.101Z,5.40
2022-09-26T22:12:40.458Z,4.40
2022-09-26T22:15:09.470Z,4.80
2022-09-26T22:17:37.163Z,4.40
2022-09-26T22:20:05.586Z,4.10
2022-09-26T22:22:33.728Z,7.10
2022-09-26T22:25:04.052Z,4.20
2022-09-26T22:27:34.366Z,4.50
2022-09-26T22:30:03.729Z,3.60
2022-09-26T22:32:31.749Z,7.30
2022-09-26T22:34:59.523Z,5.70
2022-09-26T22:37:27.984Z,4.20
2022-09-26T22:39:55.641Z,6.00
2022-09-26T22:42:23.409Z,7.10
2022-09-26T22:44:51.020Z,4.60
2022-09-26T22:47:19.196Z,9.00
2022-09-26T22:49:46.826Z,5.00
2022-09-26T22:52:14.533Z,3.00
2022-09-26T22:54:42.137Z,4.30
2022-09-26T22:57:09.909Z,6.60
2022-09-26T22:59:38.396Z,6.70
2022-09-26T23:02:06.150Z,5.80
2022-09-26T23:04:49.247Z,4.50
2022-09-26T23:07:19.797Z,11.10
2022-09-26T23:09:47.515Z,4.70
2022-09-26T23:12:15.297Z,4.60
2022-09-26T23:14:43.030Z,8.90
2022-09-26T23:17:11.211Z,4.70
2022-09-26T23:19:38.873Z,2.70
2022-09-26T23:22:06.746Z,5.40
2022-09-26T23:24:34.486Z,5.10
2022-09-26T23:27:02.216Z,7.20
2022-09-26T23:29:29.902Z,5.80
2022-09-26T23:31:57.838Z,6.30
2022-09-26T23:34:25.533Z,4.00
2022-09-26T23:36:53.206Z,5.10
2022-09-26T23:39:21.367Z,4.00
2022-09-26T23:41:48.991Z,6.70
2022-09-26T23:44:16.620Z,5.60
2022-09-26T23:46:44.491Z,4.30
2022-09-26T23:49:12.154Z,7.30
2022-09-26T23:51:39.886Z,5.10
2022-09-26T23:54:08.352Z,8.00
2022-09-26T23:56:36.206Z,6.30
2022-09-26T23:59:03.985Z,3.90
